Time;durP1;ratioP1;P1;durP2;ratioP2;P2;SDS_P1;SDS_P2;PMS_P1;PMS_P2;Temp;Humidity;BMP_temperature;BMP_pressure;BME280_temperature;BME280_humidity;BME280_pressure;Samples;Min_cycle;Max_cycle;Signal;HPM_P1;HPM_P2
2022/01/21 00:01:33;;;;;;;2.65;0.68;;;21.20;29.20;;;;;;5042459;28;20353;-57
2022/01/21 00:03:59;;;;;;;2.58;0.80;;;21.20;29.20;;;;;;5037576;28;20429;-58
2022/01/21 00:06:25;;;;;;;1.65;0.70;;;21.20;29.20;;;;;;5036482;28;20156;-54
2022/01/21 00:08:51;;;;;;;1.63;0.70;;;21.20;29.20;;;;;;5044453;28;20025;-57
2022/01/21 00:11:18;;;;;;;0.82;0.55;;;21.20;29.30;;;;;;5044165;28;20040;-57
2022/01/21 00:13:45;;;;;;;2.53;0.68;;;21.20;29.30;;;;;;5038792;28;20063;-55
2022/01/21 00:16:17;;;;;;;2.47;0.85;;;21.20;29.30;;;;;;5041348;28;20044;-56
2022/01/21 00:18:52;;;;;;;2.05;0.90;;;21.20;29.30;;;;;;5037369;28;20057;-58
2022/01/21 00:32:17;;;;;;;2.58;0.77;;;21.10;29.30;;;;;;5019206;28;20029;-57
2022/01/21 00:34:43;;;;;;;1.55;0.80;;;21.10;29.30;;;;;;5037405;28;20372;-58
2022/01/21 00:37:09;;;;;;;2.60;0.70;;;21.10;29.40;;;;;;5039693;28;20021;-54
2022/01/21 00:39:35;;;;;;;1.92;0.77;;;21.10;29.40;;;;;;5039590;28;20131;-58
2022/01/21 00:42:26;;;;;;;1.30;0.60;;;21.10;29.30;;;;;;5018170;28;20421;-57
2022/01/21 00:44:58;;;;;;;2.83;0.77;;;21.10;29.30;;;;;;5047103;28;20026;-55
2022/01/21 00:47:24;;;;;;;1.30;0.70;;;21.10;29.40;;;;;;5019572;28;20018;-58
2022/01/21 00:49:51;;;;;;;2.95;0.85;;;21.10;29.40;;;;;;5039450;28;20044;-56
2022/01/21 00:52:17;;;;;;;2.25;0.90;;;21.10;29.40;;;;;;5035270;28;20041;-58
2022/01/21 00:54:42;;;;;;;1.40;0.60;;;21.10;29.40;;;;;;5047355;28;20036;-56
2022/01/21 00:57:09;;;;;;;1.65;0.60;;;21.10;29.40;;;;;;5030610;28;20029;-59
2022/01/21 00:59:35;;;;;;;2.67;0.98;;;21.10;29.40;;;;;;5033813;28;20455;-56
2022/01/21 01:02:01;;;;;;;1.80;0.68;;;21.10;29.40;;;;;;5034107;28;20531;-55
2022/01/21 01:04:27;;;;;;;1.95;0.80;;;21.00;29.40;;;;;;5024025;28;20037;-58
2022/01/21 01:06:53;;;;;;;2.13;0.98;;;21.00;29.40;;;;;;5034717;28;20332;-58
2022/01/21 01:09:19;;;;;;;1.77;0.80;;;21.00;29.40;;;;;;5045937;28;20428;-56
2022/01/21 01:19:59;;;;;;;1.85;0.70;;;21.00;29.40;;;;;;5041140;28;20040;-55
2022/01/21 01:22:55;;;;;;;2.13;0.75;;;21.00;29.40;;;;;;5031423;28;20036;-54
2022/01/21 01:28:00;;;;;;;2.38;1.00;;;21.00;29.50;;;;;;5017319;28;20025;-55
2022/01/21 01:30:27;;;;;;;2.00;0.77;;;21.00;29.40;;;;;;5038159;28;20025;-57
2022/01/21 01:32:56;;;;;;;2.33;0.90;;;21.00;29.40;;;;;;5037981;28;20096;-55
2022/01/21 01:35:23;;;;;;;1.60;0.70;;;21.00;29.40;;;;;;5047796;28;20083;-58
2022/01/21 01:38:24;;;;;;;1.40;0.60;;;21.00;29.40;;;;;;5042519;28;20499;-55
2022/01/21 01:41:01;;;;;;;2.40;1.15;;;21.00;29.40;;;;;;5046442;28;20088;-54
2022/01/21 01:51:25;;;;;;;2.22;0.60;;;21.00;29.50;;;;;;5027178;28;20033;-56
2022/01/21 01:53:54;;;;;;;2.55;0.70;;;20.90;29.50;;;;;;5038913;28;20021;-56
2022/01/21 01:56:30;;;;;;;1.85;0.65;;;20.90;29.50;;;;;;5027767;28;20029;-58
2022/01/21 01:58:57;;;;;;;2.10;0.80;;;20.90;29.40;;;;;;5036318;28;20037;-57
2022/01/21 02:01:22;;;;;;;2.15;0.70;;;20.90;29.40;;;;;;5048440;28;20159;-56
2022/01/21 02:03:48;;;;;;;2.00;0.63;;;20.90;29.40;;;;;;5036573;28;20116;-58
2022/01/21 02:06:14;;;;;;;1.83;0.60;;;20.90;29.40;;;;;;5048292;28;20025;-58
2022/01/21 02:08:41;;;;;;;2.22;0.80;;;20.90;29.40;;;;;;5054388;28;20033;-58
2022/01/21 02:11:07;;;;;;;1.88;0.80;;;20.90;29.40;;;;;;5023547;28;20029;-57
2022/01/21 02:13:40;;;;;;;2.22;0.80;;;20.90;29.40;;;;;;5036464;28;20344;-55
2022/01/21 02:16:33;;;;;;;1.85;0.70;;;20.90;29.30;;;;;;5020976;28;20029;-57
2022/01/21 02:21:47;;;;;;;1.50;0.70;;;20.90;29.30;;;;;;5034361;28;20029;-56
2022/01/21 02:24:19;;;;;;;1.40;0.63;;;20.90;29.30;;;;;;5049611;28;20091;-55
2022/01/21 02:26:47;;;;;;;1.50;0.70;;;20.90;29.30;;;;;;5034428;28;20024;-57
2022/01/21 02:29:26;;;;;;;2.47;1.00;;;20.90;29.30;;;;;;5029097;28;20116;-56
2022/01/21 02:31:53;;;;;;;1.88;0.82;;;20.90;29.30;;;;;;5038587;28;20072;-57
2022/01/21 02:34:20;;;;;;;2.42;0.70;;;20.80;29.20;;;;;;5048215;28;20338;-57
2022/01/21 02:36:46;;;;;;;1.85;0.90;;;20.80;29.30;;;;;;5049563;28;20043;-56
2022/01/21 02:39:12;;;;;;;1.45;0.60;;;20.80;29.20;;;;;;5027842;28;20416;-56
2022/01/21 02:41:38;;;;;;;2.00;0.77;;;20.80;29.20;;;;;;5021821;28;20076;-52
2022/01/21 02:44:04;;;;;;;3.15;0.90;;;20.80;29.20;;;;;;5053777;28;20028;-58
2022/01/21 02:46:36;;;;;;;2.55;0.90;;;20.80;29.20;;;;;;5027974;28;20087;-57
2022/01/21 02:49:02;;;;;;;1.33;0.60;;;20.80;29.20;;;;;;5008150;28;20018;-55
2022/01/21 02:51:28;;;;;;;1.92;0.73;;;20.80;29.20;;;;;;5024656;28;20074;-57
2022/01/21 02:56:20;;;;;;;2.50;0.70;;;20.80;29.20;;;;;;5025908;28;20321;-57
2022/01/21 02:58:47;;;;;;;1.73;0.77;;;20.80;29.20;;;;;;5030437;28;20053;-58
2022/01/21 03:01:14;;;;;;;2.15;0.80;;;20.80;29.20;;;;;;5023703;28;20025;-58
2022/01/21 03:03:43;;;;;;;2.25;0.75;;;20.80;29.20;;;;;;5022182;28;20108;-54
2022/01/21 03:06:08;;;;;;;2.53;0.77;;;20.70;29.10;;;;;;5021789;28;20039;-57
2022/01/21 03:08:34;;;;;;;1.83;0.70;;;20.80;29.20;;;;;;5032289;28;20033;-58
2022/01/21 03:11:01;;;;;;;2.95;0.85;;;20.80;29.20;;;;;;5043062;28;20387;-55
2022/01/21 03:13:26;;;;;;;1.92;0.75;;;20.80;29.20;;;;;;5018284;28;20120;-57
2022/01/21 03:15:53;;;;;;;1.35;0.60;;;20.80;29.20;;;;;;5036501;28;20033;-57
2022/01/21 03:18:20;;;;;;;2.13;0.80;;;20.80;29.20;;;;;;5022851;28;20041;-58
2022/01/21 03:20:46;;;;;;;2.15;0.60;;;20.80;29.20;;;;;;5017813;28;20049;-58
2022/01/21 03:23:16;;;;;;;1.90;0.80;;;20.80;29.20;;;;;;5049753;28;20025;-57
2022/01/21 03:25:44;;;;;;;3.00;1.00;;;20.70;29.10;;;;;;5021325;28;20020;-57
2022/01/21 03:28:11;;;;;;;1.40;0.60;;;20.80;29.20;;;;;;5019417;28;20017;-58
2022/01/21 03:30:39;;;;;;;1.45;0.60;;;20.70;29.10;;;;;;5022030;28;20094;-56
2022/01/21 03:33:09;;;;;;;1.17;0.60;;;20.70;29.10;;;;;;5026043;28;20103;-56
2022/01/21 03:35:36;;;;;;;1.60;0.52;;;20.70;29.20;;;;;;5028036;28;20113;-56
2022/01/21 03:38:03;;;;;;;1.75;0.82;;;20.70;29.10;;;;;;5031411;28;20040;-57
2022/01/21 03:40:29;;;;;;;1.83;0.70;;;20.70;29.20;;;;;;5018667;28;20017;-58
2022/01/21 03:42:55;;;;;;;1.48;0.68;;;20.70;29.20;;;;;;5030381;28;20031;-54
2022/01/21 03:45:21;;;;;;;3.05;1.20;;;20.70;29.60;;;;;;5033942;28;20021;-58
2022/01/21 03:47:47;;;;;;;2.58;0.90;;;20.70;29.20;;;;;;5027068;28;20328;-56
2022/01/21 03:50:32;;;;;;;0.93;0.50;;;20.70;29.20;;;;;;5031068;28;20063;-57
2022/01/21 03:53:01;;;;;;;1.85;0.77;;;20.70;29.20;;;;;;5023528;28;20022;-56
2022/01/21 03:55:28;;;;;;;1.60;0.55;;;20.70;29.20;;;;;;5024989;28;20017;-53
2022/01/21 03:57:54;;;;;;;1.83;0.70;;;20.70;29.20;;;;;;5026835;28;20059;-59
2022/01/21 04:00:25;;;;;;;1.80;0.52;;;20.70;29.20;;;;;;5030549;28;20103;-58
2022/01/21 04:02:52;;;;;;;1.10;0.63;;;20.60;29.10;;;;;;5029735;28;20045;-56
2022/01/21 04:05:22;;;;;;;1.20;0.50;;;20.60;29.10;;;;;;5022436;28;20017;-53
2022/01/21 04:07:48;;;;;;;1.58;0.63;;;20.60;29.10;;;;;;5034653;28;20036;-58
2022/01/21 04:10:15;;;;;;;3.05;0.85;;;20.60;29.10;;;;;;5029761;28;20344;-58
2022/01/21 04:12:41;;;;;;;2.08;0.88;;;20.60;29.10;;;;;;5033838;28;20025;-58
2022/01/21 04:15:08;;;;;;;2.10;0.70;;;20.60;29.10;;;;;;5028871;28;20036;-54
2022/01/21 04:17:35;;;;;;;1.60;0.63;;;20.60;29.10;;;;;;5034300;28;20454;-55
2022/01/21 04:20:01;;;;;;;2.45;0.70;;;20.60;29.10;;;;;;5030548;28;20106;-58
2022/01/21 04:22:27;;;;;;;2.13;0.68;;;20.60;29.10;;;;;;5029255;28;20030;-55
2022/01/21 04:24:54;;;;;;;1.35;0.52;;;20.60;29.10;;;;;;5018909;28;20022;-55
2022/01/21 04:27:20;;;;;;;2.00;0.60;;;20.60;29.10;;;;;;5048600;28;20460;-57
2022/01/21 04:29:46;;;;;;;1.83;0.45;;;20.60;29.10;;;;;;5022725;28;20108;-56
2022/01/21 04:32:15;;;;;;;2.80;0.60;;;20.60;29.00;;;;;;5029700;28;20325;-57
2022/01/21 04:34:42;;;;;;;1.90;0.70;;;20.60;29.10;;;;;;5032121;28;20025;-52
2022/01/21 04:37:11;;;;;;;1.13;0.50;;;20.60;29.10;;;;;;5022358;28;20044;-57
2022/01/21 04:39:53;;;;;;;0.88;0.60;;;20.60;29.00;;;;;;5017912;28;20021;-58
2022/01/21 04:47:33;;;;;;;2.00;0.75;;;20.60;29.00;;;;;;5018541;28;20076;-57
2022/01/21 04:50:08;;;;;;;1.90;0.50;;;20.50;29.00;;;;;;5026763;28;20032;-55
2022/01/21 04:52:37;;;;;;;1.77;0.63;;;20.50;29.00;;;;;;5027861;28;20045;-56
2022/01/21 04:55:16;;;;;;;1.65;0.50;;;20.50;29.10;;;;;;5026885;28;20037;-57
2022/01/21 04:57:42;;;;;;;1.48;0.50;;;20.50;29.10;;;;;;5011351;28;20073;-56
2022/01/21 05:00:08;;;;;;;1.65;0.70;;;20.50;29.10;;;;;;5006508;28;20058;-57
2022/01/21 05:02:35;;;;;;;2.47;0.80;;;20.50;29.10;;;;;;5006755;28;20377;-58
2022/01/21 05:05:04;;;;;;;1.15;0.60;;;20.50;29.10;;;;;;5005722;28;20023;-56
2022/01/21 05:07:35;;;;;;;0.93;0.40;;;20.60;29.10;;;;;;5003668;28;20033;-56
2022/01/21 05:10:03;;;;;;;2.08;0.80;;;20.50;29.10;;;;;;4991430;28;20030;-56
2022/01/21 05:12:30;;;;;;;0.90;0.38;;;20.50;29.10;;;;;;5005024;28;20057;-56
2022/01/21 05:17:26;;;;;;;5.25;0.63;;;20.50;29.10;;;;;;5007555;28;20034;-59
2022/01/21 05:19:53;;;;;;;1.67;0.60;;;20.50;29.10;;;;;;5000398;28;20437;-56
2022/01/21 05:22:51;;;;;;;1.88;0.52;;;20.50;29.10;;;;;;4982620;28;20390;-57
2022/01/21 05:25:18;;;;;;;1.48;0.65;;;20.50;29.10;;;;;;4997875;28;20061;-58
2022/01/21 05:27:50;;;;;;;1.63;0.60;;;20.50;29.20;;;;;;5004913;28;20021;-55
2022/01/21 05:30:16;;;;;;;1.45;0.60;;;20.50;29.10;;;;;;5008003;28;20032;-58
2022/01/21 05:32:52;;;;;;;1.45;0.50;;;20.50;29.20;;;;;;5004965;28;20424;-58
2022/01/21 05:35:56;;;;;;;0.85;0.50;;;20.50;29.10;;;;;;5005023;28;20050;-55
2022/01/21 05:38:40;;;;;;;1.08;0.50;;;20.40;29.10;;;;;;5013202;28;20040;-54
2022/01/21 05:41:25;;;;;;;1.92;0.60;;;20.50;29.20;;;;;;5005239;28;20361;-57
2022/01/21 05:44:16;;;;;;;2.08;0.70;;;20.40;29.10;;;;;;5015710;28;20044;-55
2022/01/21 05:46:55;;;;;;;1.35;0.65;;;20.50;29.20;;;;;;5011289;28;20472;-56
2022/01/21 05:49:59;;;;;;;1.30;0.60;;;20.40;29.10;;;;;;4974197;28;20030;-57
2022/01/21 05:52:56;;;;;;;3.05;0.60;;;20.40;29.20;;;;;;4950561;28;20101;-58
2022/01/21 05:55:43;;;;;;;1.77;0.55;;;20.40;29.20;;;;;;4972108;28;20037;-55
2022/01/21 05:58:34;;;;;;;1.35;0.43;;;20.40;29.10;;;;;;5000245;28;20473;-58
2022/01/21 06:01:00;;;;;;;2.72;0.60;;;20.40;29.10;;;;;;4999260;28;20048;-59
2022/01/21 06:03:26;;;;;;;1.75;0.57;;;20.40;29.10;;;;;;5006635;28;20033;-56
2022/01/21 06:05:52;;;;;;;1.35;0.45;;;20.40;29.20;;;;;;5006448;28;20373;-53
2022/01/21 06:08:18;;;;;;;1.13;0.50;;;20.40;29.20;;;;;;5009432;28;20101;-56
2022/01/21 06:10:44;;;;;;;1.67;0.50;;;20.40;29.10;;;;;;5005746;28;20346;-56
2022/01/21 06:13:15;;;;;;;1.20;0.40;;;20.40;29.20;;;;;;5001589;28;20018;-55
2022/01/21 06:15:41;;;;;;;3.13;0.80;;;20.40;29.10;;;;;;5001247;28;20084;-56
2022/01/21 06:18:06;;;;;;;0.98;0.50;;;20.40;29.10;;;;;;5007288;28;20030;-56
2022/01/21 06:20:32;;;;;;;1.27;0.50;;;20.40;29.10;;;;;;5007084;28;20038;-57
2022/01/21 06:22:58;;;;;;;0.73;0.40;;;20.40;29.10;;;;;;5000496;28;20022;-57
2022/01/21 06:25:24;;;;;;;1.48;0.40;;;20.40;29.10;;;;;;5005701;28;20155;-56
2022/01/21 06:27:50;;;;;;;1.08;0.50;;;20.40;29.10;;;;;;5006280;28;20062;-57
2022/01/21 06:30:15;;;;;;;1.45;0.40;;;20.40;29.10;;;;;;5000548;28;20030;-57
2022/01/21 06:32:42;;;;;;;1.88;0.60;;;20.40;29.10;;;;;;5000114;28;20050;-57
2022/01/21 06:35:10;;;;;;;1.27;0.38;;;20.40;29.20;;;;;;4999466;28;20065;-57
2022/01/21 06:37:36;;;;;;;0.90;0.50;;;20.40;29.20;;;;;;4997475;28;20433;-53
2022/01/21 06:40:07;;;;;;;0.90;0.50;;;20.40;29.20;;;;;;5008865;28;20026;-54
2022/01/21 06:42:33;;;;;;;2.33;0.70;;;20.40;29.20;;;;;;5008346;28;20434;-55
2022/01/21 06:45:02;;;;;;;1.17;0.45;;;20.40;29.20;;;;;;5012814;28;20485;-57
2022/01/21 06:47:29;;;;;;;1.73;0.68;;;20.40;29.20;;;;;;4996605;28;20018;-54
2022/01/21 06:49:58;;;;;;;2.33;0.60;;;20.40;29.20;;;;;;5005759;28;20026;-56
2022/01/21 06:52:28;;;;;;;2.28;0.85;;;20.40;29.20;;;;;;4999299;28;20365;-51
2022/01/21 06:54:54;;;;;;;1.40;0.50;;;20.40;29.20;;;;;;5010274;28;20022;-52
2022/01/21 06:57:20;;;;;;;1.05;0.50;;;20.40;29.20;;;;;;5004896;28;20056;-52
2022/01/21 06:59:47;;;;;;;1.05;0.47;;;20.40;29.20;;;;;;5037522;28;20098;-52
2022/01/21 07:02:14;;;;;;;1.70;0.60;;;20.40;29.20;;;;;;5048308;28;20012;-49
2022/01/21 07:04:40;;;;;;;2.00;0.60;;;20.40;29.20;;;;;;5048000;28;20029;-50
2022/01/21 07:07:07;;;;;;;1.02;0.47;;;20.40;29.20;;;;;;5045111;28;20498;-53
2022/01/21 07:09:33;;;;;;;1.25;0.50;;;20.40;29.20;;;;;;5047776;28;20021;-49
2022/01/21 07:11:59;;;;;;;1.20;0.50;;;20.40;29.20;;;;;;5043104;28;20021;-51
2022/01/21 07:14:25;;;;;;;0.77;0.43;;;20.40;29.30;;;;;;5035815;28;20036;-52
2022/01/21 07:16:50;;;;;;;1.02;0.40;;;20.40;29.30;;;;;;5041868;28;20452;-56
2022/01/21 07:19:16;;;;;;;1.38;0.60;;;20.40;29.30;;;;;;5046415;28;20305;-56
2022/01/21 07:21:42;;;;;;;1.67;0.60;;;20.40;29.30;;;;;;5040278;28;20044;-57
2022/01/21 07:24:08;;;;;;;0.70;0.35;;;20.40;29.40;;;;;;5038030;28;20028;-55
2022/01/21 07:26:34;;;;;;;2.40;0.52;;;20.40;29.40;;;;;;5039467;28;20029;-56
2022/01/21 07:29:01;;;;;;;1.00;0.43;;;20.40;29.50;;;;;;5036979;28;20021;-52
2022/01/21 07:31:26;;;;;;;2.20;0.70;;;20.40;29.60;;;;;;5027344;28;20040;-53
2022/01/21 07:33:53;;;;;;;1.08;0.47;;;20.40;29.60;;;;;;5034480;28;20041;-50
2022/01/21 07:36:18;;;;;;;2.58;0.80;;;20.50;29.70;;;;;;5038055;28;20099;-51
2022/01/21 07:38:45;;;;;;;2.03;0.60;;;20.50;29.70;;;;;;5034961;28;20104;-57
2022/01/21 07:41:11;;;;;;;1.50;0.57;;;20.60;29.70;;;;;;5040975;28;20110;-50
2022/01/21 07:43:37;;;;;;;2.65;1.08;;;20.70;29.60;;;;;;5035161;28;20032;-48
2022/01/21 07:46:03;;;;;;;1.45;0.63;;;20.80;29.60;;;;;;5038930;28;20017;-49
2022/01/21 07:48:29;;;;;;;2.33;0.90;;;20.90;29.50;;;;;;5042689;28;20113;-53
2022/01/21 07:50:55;;;;;;;1.52;0.60;;;21.00;29.50;;;;;;5054235;28;20075;-50
2022/01/21 07:53:21;;;;;;;1.98;0.70;;;21.10;29.50;;;;;;5053785;28;20025;-49
2022/01/21 07:55:50;;;;;;;1.60;0.60;;;21.10;29.40;;;;;;5063536;28;20021;-55
2022/01/21 07:58:16;;;;;;;2.10;0.70;;;21.20;29.40;;;;;;5041098;28;20045;-54
2022/01/21 08:00:42;;;;;;;3.30;1.00;;;21.30;29.30;;;;;;5044602;28;20033;-55
2022/01/21 08:03:08;;;;;;;1.33;0.90;;;21.40;29.30;;;;;;5038942;28;20037;-48
2022/01/21 08:05:34;;;;;;;1.85;0.70;;;21.40;29.20;;;;;;5045603;28;20043;-48
2022/01/21 08:08:01;;;;;;;1.92;0.95;;;21.40;29.10;;;;;;5052369;28;20029;-52
2022/01/21 08:10:28;;;;;;;1.95;0.82;;;21.50;29.10;;;;;;5048675;28;20096;-49
2022/01/21 08:12:54;;;;;;;2.60;1.23;;;21.60;29.50;;;;;;5044060;28;20351;-46
2022/01/21 08:15:20;;;;;;;1.95;0.88;;;21.70;29.00;;;;;;5041961;28;20041;-46
2022/01/21 08:17:45;;;;;;;1.17;0.47;;;21.80;28.90;;;;;;5052016;28;20063;-52
2022/01/21 08:20:12;;;;;;;2.28;0.82;;;21.90;28.80;;;;;;5042282;28;20052;-49
2022/01/21 08:22:38;;;;;;;1.75;0.63;;;22.00;28.80;;;;;;5039968;28;20036;-51
2022/01/21 08:25:04;;;;;;;1.13;0.60;;;22.10;28.70;;;;;;5025518;28;20025;-46
2022/01/21 08:27:30;;;;;;;2.08;0.73;;;22.10;28.60;;;;;;5050205;28;20111;-49
2022/01/21 08:29:56;;;;;;;1.90;0.88;;;22.20;28.60;;;;;;5046849;28;20103;-50
2022/01/21 08:32:23;;;;;;;1.85;0.73;;;22.30;28.50;;;;;;5032869;28;20032;-48
2022/01/21 08:34:49;;;;;;;1.50;0.88;;;22.40;28.60;;;;;;5046581;28;20130;-50
2022/01/21 08:37:16;;;;;;;2.08;1.08;;;22.40;28.50;;;;;;5039536;28;20040;-48
2022/01/21 08:39:43;;;;;;;1.67;0.65;;;22.60;28.50;;;;;;5044925;28;20029;-51
2022/01/21 08:42:10;;;;;;;1.52;0.68;;;22.60;28.40;;;;;;5043656;28;20101;-50
2022/01/21 08:44:36;;;;;;;2.70;1.05;;;22.70;28.40;;;;;;5034230;28;20108;-47
2022/01/21 08:47:02;;;;;;;1.45;0.55;;;22.80;28.30;;;;;;5041102;28;20116;-51
2022/01/21 08:49:28;;;;;;;2.28;0.70;;;22.80;28.20;;;;;;5043215;28;20029;-53
2022/01/21 08:51:56;;;;;;;2.20;0.70;;;22.90;28.30;;;;;;5062412;28;20027;-55
2022/01/21 08:54:24;;;;;;;1.98;0.90;;;22.90;28.20;;;;;;5058796;28;20037;-48
2022/01/21 08:56:51;;;;;;;2.13;0.65;;;23.00;28.20;;;;;;5045029;28;20051;-49
2022/01/21 08:59:17;;;;;;;1.23;0.70;;;23.10;28.10;;;;;;5078013;28;20398;-51
2022/01/21 09:01:44;;;;;;;1.67;0.70;;;23.10;28.10;;;;;;5063472;28;20041;-49
2022/01/21 09:04:11;;;;;;;1.25;0.70;;;23.20;28.00;;;;;;5040657;28;20036;-56
2022/01/21 09:06:37;;;;;;;1.80;0.57;;;23.30;28.10;;;;;;5054760;28;20025;-52
2022/01/21 09:09:04;;;;;;;1.35;0.60;;;23.30;28.10;;;;;;5054757;28;20124;-55
2022/01/21 09:11:30;;;;;;;1.67;0.63;;;23.40;28.20;;;;;;5049113;28;20027;-52
2022/01/21 09:13:57;;;;;;;2.83;0.68;;;23.40;28.10;;;;;;5047040;28;20128;-51
2022/01/21 09:16:23;;;;;;;2.17;0.60;;;23.50;28.10;;;;;;5046946;28;20056;-52
2022/01/21 09:18:55;;;;;;;2.33;0.80;;;23.50;28.10;;;;;;5037688;28;20089;-50
2022/01/21 09:21:25;;;;;;;1.10;0.52;;;23.60;28.00;;;;;;5047398;28;20030;-48
2022/01/21 09:23:53;;;;;;;2.13;0.60;;;23.60;28.00;;;;;;5039124;28;20106;-51
2022/01/21 09:26:20;;;;;;;1.95;0.75;;;23.70;28.00;;;;;;5051514;28;20020;-54
2022/01/21 09:28:47;;;;;;;1.17;0.60;;;23.70;28.00;;;;;;5039556;28;20029;-53
2022/01/21 09:31:14;;;;;;;2.35;0.60;;;23.70;27.90;;;;;;5042802;28;20028;-50
2022/01/21 09:33:40;;;;;;;0.98;0.30;;;23.70;27.90;;;;;;5046616;28;20029;-52
2022/01/21 09:36:08;;;;;;;1.63;0.60;;;23.70;27.90;;;;;;5041828;28;20021;-50
2022/01/21 09:38:34;;;;;;;1.95;0.68;;;23.70;27.90;;;;;;5043939;28;20125;-53
2022/01/21 09:41:00;;;;;;;1.90;0.50;;;23.70;27.90;;;;;;5046145;28;20248;-51
2022/01/21 09:43:26;;;;;;;1.33;0.50;;;23.60;27.90;;;;;;5044708;28;20029;-52
2022/01/21 09:45:54;;;;;;;2.00;0.70;;;23.60;27.90;;;;;;5045869;28;20448;-49
2022/01/21 09:48:23;;;;;;;1.45;0.68;;;23.60;27.90;;;;;;5037483;28;20021;-50
2022/01/21 09:50:51;;;;;;;1.63;0.55;;;23.50;27.90;;;;;;5043921;28;20090;-47
2022/01/21 09:53:24;;;;;;;1.00;0.50;;;23.50;28.00;;;;;;5048363;28;20104;-56
2022/01/21 09:55:50;;;;;;;1.73;0.50;;;23.40;28.00;;;;;;5049429;28;20060;-56
2022/01/21 09:58:16;;;;;;;2.90;0.90;;;23.30;28.00;;;;;;5055521;28;20037;-49
2022/01/21 10:00:42;;;;;;;1.92;0.73;;;23.30;28.10;;;;;;5051491;28;20021;-51
2022/01/21 10:03:09;;;;;;;1.25;0.57;;;23.20;28.10;;;;;;5046712;28;20049;-54
2022/01/21 10:05:36;;;;;;;1.73;0.73;;;23.20;28.10;;;;;;5060947;28;20446;-49
2022/01/21 10:08:05;;;;;;;1.95;0.75;;;23.20;28.20;;;;;;5046613;28;20017;-52
2022/01/21 10:10:31;;;;;;;2.55;0.95;;;23.10;28.20;;;;;;5040665;28;20021;-51
2022/01/21 10:13:02;;;;;;;2.95;0.70;;;23.10;28.30;;;;;;5048718;28;20378;-48
2022/01/21 10:15:30;;;;;;;1.92;0.70;;;23.00;28.30;;;;;;5053653;28;20052;-51
2022/01/21 10:18:12;;;;;;;2.40;0.85;;;23.00;28.30;;;;;;5027188;28;20028;-57
2022/01/21 10:20:58;;;;;;;2.40;0.85;;;22.90;28.40;;;;;;5048043;28;20447;-54
2022/01/21 10:23:25;;;;;;;3.10;1.10;;;22.90;28.60;;;;;;5053881;28;20027;-51
2022/01/21 10:26:01;;;;;;;4.05;1.58;;;22.80;28.80;;;;;;5049381;28;20066;-52
2022/01/21 10:28:29;;;;;;;3.90;1.38;;;22.80;29.00;;;;;;5042235;28;20079;-54
2022/01/21 10:31:16;;;;;;;4.25;1.20;;;22.80;29.00;;;;;;5044217;28;20424;-57
2022/01/21 10:33:56;;;;;;;1.77;0.95;;;22.80;29.00;;;;;;5048414;28;20073;-51
2022/01/21 10:36:32;;;;;;;2.08;0.90;;;22.80;29.00;;;;;;5049059;28;20109;-56
2022/01/21 10:39:11;;;;;;;6.20;1.50;;;22.70;29.00;;;;;;5043247;28;20048;-53
2022/01/21 10:41:47;;;;;;;2.08;0.80;;;22.70;29.10;;;;;;5042306;28;20025;-55
2022/01/21 10:44:18;;;;;;;3.63;1.00;;;22.70;29.10;;;;;;5046822;28;20383;-58
2022/01/21 10:47:01;;;;;;;1.83;0.80;;;22.60;29.20;;;;;;5025597;28;20063;-58
2022/01/21 10:49:28;;;;;;;2.35;0.85;;;22.70;29.30;;;;;;5040743;28;20028;-60
2022/01/21 10:51:57;;;;;;;2.65;0.98;;;22.70;29.40;;;;;;5054346;28;20039;-53
2022/01/21 10:54:26;;;;;;;2.72;1.30;;;22.80;29.50;;;;;;5054116;28;20044;-52
2022/01/21 10:57:04;;;;;;;3.25;0.95;;;22.80;29.60;;;;;;5058698;28;20048;-55
2022/01/21 10:59:55;;;;;;;3.60;1.25;;;22.90;29.80;;;;;;5010706;28;20034;-55
2022/01/21 11:02:35;;;;;;;1.98;0.80;;;23.00;29.90;;;;;;5016155;28;20073;-55
2022/01/21 11:05:07;;;;;;;4.72;1.38;;;23.00;30.00;;;;;;5018882;28;20026;-58
2022/01/21 11:07:54;;;;;;;9.30;1.50;;;23.00;30.10;;;;;;5010464;28;20121;-58
2022/01/21 11:10:33;;;;;;;3.63;1.10;;;23.10;30.40;;;;;;5002873;28;20045;-47
2022/01/21 11:13:12;;;;;;;3.25;0.88;;;23.10;30.40;;;;;;5004227;28;20056;-50
2022/01/21 11:15:38;;;;;;;2.50;0.95;;;23.10;30.40;;;;;;5011092;28;20127;-51
2022/01/21 11:18:06;;;;;;;3.65;1.00;;;23.10;30.40;;;;;;5002206;28;20087;-48
2022/01/21 11:20:40;;;;;;;3.72;1.20;;;23.10;30.30;;;;;;5003383;28;20041;-51
2022/01/21 11:23:08;;;;;;;2.58;1.00;;;23.20;30.30;;;;;;5003838;28;20022;-53
2022/01/21 11:25:54;;;;;;;4.80;1.33;;;23.20;30.30;;;;;;5008933;28;20038;-54
2022/01/21 11:28:22;;;;;;;2.63;0.85;;;23.30;30.30;;;;;;5005607;28;20022;-52
2022/01/21 11:30:50;;;;;;;4.22;0.98;;;23.30;30.30;;;;;;5007115;28;20021;-51
2022/01/21 11:33:18;;;;;;;3.35;1.15;;;23.30;30.40;;;;;;5003124;28;20033;-49
2022/01/21 11:35:45;;;;;;;3.45;1.10;;;23.30;30.40;;;;;;5008502;28;20437;-55
2022/01/21 11:38:12;;;;;;;4.65;1.10;;;23.40;30.40;;;;;;4999330;28;20026;-57
2022/01/21 11:40:40;;;;;;;3.67;1.10;;;23.40;30.50;;;;;;5006218;28;20034;-59
2022/01/21 11:43:09;;;;;;;3.33;1.10;;;23.40;30.50;;;;;;5002241;28;20022;-55
2022/01/21 11:50:40;;;;;;;3.28;1.42;;;23.50;30.50;;;;;;5004810;28;20041;-54
2022/01/21 11:53:06;;;;;;;2.70;1.17;;;23.50;30.50;;;;;;5003504;28;20121;-52
2022/01/21 11:55:45;;;;;;;3.75;1.80;;;23.50;30.50;;;;;;5012174;28;20121;-51
2022/01/21 11:58:22;;;;;;;3.13;1.90;;;23.50;30.60;;;;;;5032047;28;20040;-48
2022/01/21 12:00:51;;;;;;;4.65;2.15;;;23.50;30.60;;;;;;5049907;28;20039;-55
2022/01/21 12:03:22;;;;;;;4.40;2.30;;;23.60;30.70;;;;;;5044616;28;20056;-47
2022/01/21 12:05:50;;;;;;;5.10;2.60;;;23.50;30.70;;;;;;5049450;28;20351;-47
2022/01/21 12:08:47;;;;;;;5.00;2.60;;;23.50;30.80;;;;;;5051758;28;20392;-48
2022/01/21 12:11:37;;;;;;;5.22;2.83;;;23.60;30.80;;;;;;5051365;28;20021;-46
2022/01/21 12:14:32;;;;;;;5.63;3.30;;;23.60;30.70;;;;;;5050709;28;20333;-45
2022/01/21 12:17:12;;;;;;;4.78;3.53;;;23.60;30.70;;;;;;5052566;28;20036;-45
2022/01/21 12:19:40;;;;;;;5.43;3.40;;;23.50;30.80;;;;;;5045862;28;20424;-47
2022/01/21 12:22:17;;;;;;;7.57;4.70;;;23.60;30.80;;;;;;5026993;28;20373;-48
2022/01/21 12:25:02;;;;;;;8.43;4.90;;;23.60;30.80;;;;;;5026960;28;21337;-47
2022/01/21 12:27:28;;;;;;;7.05;4.97;;;23.60;30.80;;;;;;5042909;28;20442;-43
2022/01/21 12:30:26;;;;;;;8.48;5.85;;;23.60;30.70;;;;;;5041271;28;20037;-44
2022/01/21 12:32:58;;;;;;;8.65;5.95;;;23.60;30.70;;;;;;5045474;28;20432;-44
2022/01/21 12:36:02;;;;;;;8.35;6.22;;;23.50;30.70;;;;;;4968339;28;20034;-47
2022/01/21 12:41:04;;;;;;;8.60;7.05;;;23.50;30.80;;;;;;5052807;28;20021;-50
2022/01/21 12:43:41;;;;;;;8.65;5.40;;;23.50;30.80;;;;;;5053903;28;20029;-48
2022/01/21 12:46:17;;;;;;;9.15;6.28;;;23.50;30.70;;;;;;5039877;28;20033;-43
2022/01/21 12:48:45;;;;;;;8.23;6.10;;;23.50;30.70;;;;;;5043258;28;20035;-44
2022/01/21 12:57:09;;;;;;;7.18;5.43;;;23.40;30.70;;;;;;5049313;28;20462;-45
2022/01/21 12:59:36;;;;;;;8.88;6.10;;;23.40;30.70;;;;;;5041998;28;20388;-46
2022/01/21 13:02:05;;;;;;;9.25;5.88;;;23.40;30.70;;;;;;5038658;28;20024;-45
2022/01/21 13:04:39;;;;;;;8.43;5.95;;;23.40;30.70;;;;;;5043596;28;20021;-44
2022/01/21 13:07:10;;;;;;;;;;;23.40;30.70;;;;;;5043701;28;20029;-44
2022/01/21 13:10:07;;;;;;;6.15;4.43;;;23.40;30.80;;;;;;5034045;28;19995;-50
2022/01/21 13:12:58;;;;;;;5.68;4.43;;;23.30;30.70;;;;;;5004130;28;20033;-44
2022/01/21 13:15:46;;;;;;;8.20;5.22;;;23.30;31.30;;;;;;5037046;28;20044;-52
2022/01/21 13:18:24;;;;;;;8.07;5.07;;;23.30;30.70;;;;;;5040871;28;20021;-45
2022/01/21 13:20:58;;;;;;;6.18;4.65;;;23.30;30.80;;;;;;5036058;28;20041;-48
2022/01/21 13:23:43;;;;;;;6.40;4.55;;;23.30;30.80;;;;;;5043931;28;20068;-50
2022/01/21 13:26:20;;;;;;;7.93;4.93;;;23.30;30.90;;;;;;5034823;28;20037;-50
2022/01/21 13:29:05;;;;;;;7.22;4.38;;;23.20;30.80;;;;;;5034913;28;20383;-51
2022/01/21 13:31:50;;;;;;;8.38;5.07;;;23.30;30.80;;;;;;5044258;28;20040;-45
2022/01/21 13:34:18;;;;;;;;;;;23.20;30.80;;;;;;5043971;28;20055;-52
2022/01/21 13:36:50;;;;;;;6.78;4.47;;;23.20;30.80;;;;;;5055461;28;19904;-48
2022/01/21 13:39:21;;;;;;;8.10;5.18;;;23.20;30.90;;;;;;5054820;28;20073;-51
2022/01/21 13:41:55;;;;;;;7.15;5.20;;;23.10;30.80;;;;;;5046762;28;20098;-47
2022/01/21 13:44:35;;;;;;;6.78;4.88;;;23.10;30.80;;;;;;5038637;28;20033;-49
2022/01/21 13:47:06;;;;;;;7.43;5.45;;;23.10;31.40;;;;;;5044211;28;20053;-47
2022/01/21 13:49:32;;;;;;;6.90;5.20;;;23.10;30.80;;;;;;5038264;28;20033;-51
2022/01/21 13:52:01;;;;;;;7.25;5.18;;;23.10;30.80;;;;;;5047142;28;20028;-50
2022/01/21 13:54:46;;;;;;;7.50;4.72;;;23.10;30.80;;;;;;5045816;28;20049;-51
2022/01/21 13:57:12;;;;;;;6.93;4.75;;;23.10;30.80;;;;;;5040205;28;20036;-50
2022/01/21 13:59:46;;;;;;;6.50;4.65;;;23.10;30.80;;;;;;5046994;28;20056;-47
2022/01/21 14:02:17;;;;;;;7.35;4.53;;;23.10;30.70;;;;;;5031421;28;20017;-49